Stowell, TX (77661)

10:12 PM CST on January 31, 2015 (GMT -0600)
Burrell Cove | Change Station
CLOSE
Current Station
Personal Weather Station
Location: Beaumont, TX
Elevation: 16 ft
Nearby Weather Stations

Elev 16 ft 29.89 °N, 94.22 °W | Updated 19 seconds ago

Overcast
Overcast
59.7 °F
Feels Like 59.7 °F
N
4.0
Wind Variable Wind from ESE
Gusts 5.0 mph

Today
High -- | Low -- °F
--% Chance of Precip.
Yesterday
High -- | Low -- °F
Precip. -- in
7:08 AM 5:54 PM
Waxing Gibbous, 93% visible
Pressure 30.05 in
Visibility 10.0 miles
Clouds Overcast 6000 ft
Dew Point 57 °F
Humidity 90%
Rainfall 0.00 in
Snow Depth Not available.
UV 0 out of 12
Pollen 8.60 out of 12
Air Quality Not available.
Flu Activity Not available.
METAR KBMT 010335Z AUTO 12011G17KT 10SM OVC060 15/13 A3005 RMK AO2 T01510125

More Conditions Fewer Conditions

Pressure 30.05 in
Visibility 10.0 miles
Clouds Overcast 6000 ft
Dew Point 57 °F
Humidity 90%
Rainfall 0.00 in
Snow Depth Not available.
UV 0 out of 12
Pollen 8.60 out of 12
Air Quality Not available.
Flu Activity Not available.
METAR KBMT 010335Z AUTO 12011G17KT 10SM OVC060 15/13 A3005 RMK AO2 T01510125

More Conditions Fewer Conditions

10-Day Weather Forecast

Almanac

Astronomy

Jan. 31, 2015 Rise Set
Actual Time
Civil Twilight
Nautical Twilight
Astronomical Twilight
Moon
Length of Visible Light
Length of Day
Tomorrow will be .
, % of the Moon is Illuminated

Today's Extremes

State Highs State Lows

Community

WunderPhotos

Upload Photos

1,792,301 photos uploaded!

WunderBlogs® & News

Nearby

Air Quality

  Air Quality AQ Index Pollutant
Not available.

Snow Depth

Station Depth Elevation

Earthquake Activity

City Distance Mag. Time & Date
Minimum magnitude displayed is 2.5.

Coastal Water Temperatures

Place Temperature

Nearby Weather Stations